Time;durP1;ratioP1;P1;durP2;ratioP2;P2;SDS_P1;SDS_P2;PMS_P1;PMS_P2;Temp;Humidity;BMP_temperature;BMP_pressure;BME280_temperature;BME280_humidity;BME280_pressure;Samples;Min_cycle;Max_cycle;Signal;HPM_P1;HPM_P2
2022/12/05 04:01:38;;;;;;;54.72;22.02;;;4.80;99.90;;;;;;6163133;23;20047;-83
2022/12/05 04:04:15;;;;;;;57.63;23.38;;;4.90;99.90;;;;;;6137902;23;20017;-83
2022/12/05 04:06:44;;;;;;;51.10;22.52;;;4.80;99.90;;;;;;6162696;23;20024;-83
2022/12/05 04:09:42;;;;;;;49.10;20.85;;;4.90;99.90;;;;;;6188985;23;20027;-83
2022/12/05 04:12:14;;;;;;;50.17;19.17;;;4.90;99.90;;;;;;6161053;23;20098;-81
2022/12/05 04:14:47;;;;;;;47.45;19.40;;;4.90;99.90;;;;;;6137372;23;20017;-83
2022/12/05 04:17:31;;;;;;;46.20;18.98;;;4.90;99.90;;;;;;6162125;23;20009;-83
2022/12/05 04:22:59;;;;;;;39.03;17.70;;;4.90;99.90;;;;;;6161823;23;20050;-81
2022/12/05 04:25:32;;;;;;;42.25;18.73;;;5.00;99.90;;;;;;6162186;23;20084;-83
2022/12/05 04:28:31;;;;;;;36.72;16.30;;;4.90;99.90;;;;;;6162956;23;20474;-82
2022/12/05 04:30:59;;;;;;;37.58;17.40;;;5.00;99.90;;;;;;6140906;23;20017;-83
2022/12/05 04:33:32;;;;;;;33.20;15.82;;;5.00;99.90;;;;;;6188354;23;20017;-83
2022/12/05 04:36:15;;;;;;;35.65;16.05;;;5.00;99.90;;;;;;6189461;23;20036;-82
2022/12/05 04:38:40;;;;;;;35.88;15.85;;;5.00;99.90;;;;;;6138988;23;20481;-83
2022/12/05 04:41:12;;;;;;;36.38;15.98;;;5.00;99.90;;;;;;6162994;23;20056;-83
2022/12/05 04:43:41;;;;;;;37.50;16.38;;;5.00;99.90;;;;;;6161765;23;20048;-83
2022/12/05 04:46:10;;;;;;;33.75;15.07;;;5.00;99.90;;;;;;6161466;23;20028;-82
2022/12/05 04:48:39;;;;;;;35.67;15.77;;;5.00;99.90;;;;;;6188160;23;20013;-83
2022/12/05 04:51:15;;;;;;;30.48;14.18;;;5.00;99.90;;;;;;6161694;23;20005;-82
2022/12/05 04:53:42;;;;;;;32.65;15.32;;;5.00;99.90;;;;;;6188436;23;20043;-82
2022/12/05 04:56:10;;;;;;;32.47;14.73;;;5.00;99.90;;;;;;6162025;23;20069;-83
2022/12/05 04:58:35;;;;;;;31.50;14.27;;;5.00;99.90;;;;;;6162245;23;20009;-84
2022/12/05 05:01:21;;;;;;;34.30;15.88;;;5.00;99.90;;;;;;6141316;23;20044;-82
2022/12/05 05:03:53;;;;;;;29.77;14.25;;;5.10;99.90;;;;;;6188554;23;20020;-83
2022/12/05 05:06:19;;;;;;;29.10;14.40;;;5.10;99.90;;;;;;6161550;23;20017;-83
2022/12/05 05:08:53;;;;;;;33.70;14.85;;;5.10;99.90;;;;;;6186941;23;20036;-83
2022/12/05 05:11:31;;;;;;;32.80;14.60;;;5.10;99.90;;;;;;6186519;23;20037;-83
2022/12/05 05:13:58;;;;;;;31.23;13.52;;;5.00;99.90;;;;;;6186427;23;20451;-83
2022/12/05 05:16:30;;;;;;;30.00;12.80;;;5.10;99.90;;;;;;6186673;23;20029;-84
2022/12/05 05:18:56;;;;;;;34.03;13.75;;;5.10;99.90;;;;;;6186335;23;20040;-82
2022/12/05 05:21:26;;;;;;;27.30;13.20;;;5.00;99.90;;;;;;6187851;23;20016;-83
2022/12/05 05:23:52;;;;;;;30.25;12.93;;;5.10;99.90;;;;;;6186526;23;20340;-82
2022/12/05 05:26:19;;;;;;;27.83;13.52;;;5.10;99.90;;;;;;6185640;23;20016;-83
2022/12/05 05:28:45;;;;;;;30.10;13.32;;;5.10;99.90;;;;;;6186483;23;20374;-82
2022/12/05 05:31:12;;;;;;;26.45;12.50;;;5.10;99.90;;;;;;6186060;23;20056;-82
2022/12/05 05:33:38;;;;;;;25.88;11.75;;;5.10;99.90;;;;;;6185842;23;20024;-80
2022/12/05 05:36:12;;;;;;;28.40;11.90;;;5.10;99.90;;;;;;6161301;23;20088;-83
2022/12/05 05:38:43;;;;;;;27.98;12.80;;;5.10;99.90;;;;;;6185721;23;20017;-81
2022/12/05 05:41:18;;;;;;;25.95;11.10;;;5.10;99.90;;;;;;6187998;23;20091;-83
2022/12/05 05:43:44;;;;;;;23.85;11.30;;;5.10;99.90;;;;;;6187800;23;20016;-83
2022/12/05 05:46:11;;;;;;;24.58;11.95;;;5.10;99.90;;;;;;6186273;23;20063;-82
2022/12/05 05:48:37;;;;;;;26.27;11.88;;;5.10;99.90;;;;;;6186047;23;20017;-82
2022/12/05 05:51:05;;;;;;;22.80;10.35;;;5.10;99.90;;;;;;6186000;23;20017;-81
2022/12/05 05:53:31;;;;;;;29.42;10.98;;;5.10;99.90;;;;;;6186218;23;20021;-81
2022/12/05 05:56:01;;;;;;;23.92;10.60;;;5.10;99.90;;;;;;6186621;23;20028;-79
2022/12/05 05:58:26;;;;;;;21.80;10.23;;;5.10;99.90;;;;;;6187127;23;20378;-80
2022/12/05 06:00:52;;;;;;;21.60;10.35;;;5.10;99.90;;;;;;6185842;23;20024;-81
2022/12/05 06:03:18;;;;;;;22.77;9.63;;;5.10;99.90;;;;;;6188034;23;20009;-81
2022/12/05 06:05:43;;;;;;;22.80;10.30;;;5.10;99.90;;;;;;6188560;23;20009;-83
2022/12/05 06:08:09;;;;;;;24.33;9.63;;;5.10;99.90;;;;;;6188001;23;20016;-82
2022/12/05 06:10:37;;;;;;;25.00;10.57;;;5.10;99.90;;;;;;6187228;23;20033;-81
2022/12/05 06:13:03;;;;;;;24.05;10.20;;;5.10;99.90;;;;;;6162249;23;20048;-81
2022/12/05 06:15:28;;;;;;;23.02;10.55;;;5.10;99.90;;;;;;6160211;23;20431;-82
2022/12/05 06:17:55;;;;;;;24.52;11.27;;;5.20;99.90;;;;;;6160764;23;20017;-82
2022/12/05 06:20:21;;;;;;;25.25;10.15;;;5.10;99.90;;;;;;6186594;23;20021;-82
2022/12/05 06:22:46;;;;;;;24.65;10.73;;;5.20;99.90;;;;;;6188562;23;20455;-81
2022/12/05 06:25:12;;;;;;;23.30;10.38;;;5.20;99.90;;;;;;6185985;23;20024;-82
2022/12/05 06:27:38;;;;;;;25.13;11.23;;;5.20;99.90;;;;;;6188433;23;20497;-81
2022/12/05 06:30:04;;;;;;;24.25;10.52;;;5.20;99.90;;;;;;6161913;23;20041;-80
2022/12/05 06:32:30;;;;;;;25.35;11.02;;;5.10;99.90;;;;;;6185980;23;20016;-83
2022/12/05 06:34:55;;;;;;;24.38;10.80;;;5.20;99.90;;;;;;6186807;23;20109;-80
2022/12/05 06:37:21;;;;;;;23.15;11.35;;;5.20;99.90;;;;;;6188313;23;20044;-79
2022/12/05 06:39:47;;;;;;;20.98;10.88;;;5.20;99.90;;;;;;6186738;23;20060;-85
2022/12/05 06:42:12;;;;;;;24.70;11.43;;;5.10;99.90;;;;;;6188607;23;20076;-84
2022/12/05 06:44:39;;;;;;;24.45;11.80;;;5.20;99.90;;;;;;6187273;23;20051;-83
2022/12/05 06:47:04;;;;;;;26.90;11.05;;;5.20;99.90;;;;;;6162438;23;20013;-83
2022/12/05 06:49:32;;;;;;;25.00;11.20;;;5.20;99.90;;;;;;6186525;23;20011;-83
2022/12/05 06:51:58;;;;;;;23.08;10.95;;;5.20;99.90;;;;;;6186683;23;20055;-83
2022/12/05 06:54:24;;;;;;;24.80;11.40;;;5.20;99.90;;;;;;6186579;23;20013;-84
2022/12/05 06:56:49;;;;;;;29.02;12.10;;;5.20;99.90;;;;;;6186926;23;20044;-84
2022/12/05 06:59:15;;;;;;;24.48;11.00;;;5.20;99.90;;;;;;6186997;23;20509;-84
2022/12/05 07:01:41;;;;;;;26.30;11.75;;;5.20;99.90;;;;;;6161955;23;20029;-83
2022/12/05 07:04:20;;;;;;;22.33;10.82;;;5.20;99.90;;;;;;6187006;23;20028;-83
2022/12/05 07:06:49;;;;;;;25.27;11.02;;;5.20;99.90;;;;;;6186803;23;20088;-81
2022/12/05 07:09:17;;;;;;;25.65;11.10;;;5.20;99.90;;;;;;6162103;23;20040;-83
2022/12/05 07:11:47;;;;;;;22.40;10.52;;;5.20;99.90;;;;;;6186840;23;20450;-82
2022/12/05 07:14:12;;;;;;;21.48;10.38;;;5.20;99.90;;;;;;6161935;23;19997;-83
2022/12/05 07:16:38;;;;;;;19.52;9.95;;;5.20;99.90;;;;;;6188799;23;20025;-82
2022/12/05 07:19:03;;;;;;;26.17;10.82;;;5.20;99.90;;;;;;6186682;23;20123;-82
2022/12/05 07:21:29;;;;;;;24.65;10.40;;;5.20;99.90;;;;;;6185848;23;20092;-83
2022/12/05 07:23:55;;;;;;;25.33;11.40;;;5.20;99.90;;;;;;6188954;23;20009;-82
2022/12/05 07:26:22;;;;;;;24.38;10.23;;;5.20;99.90;;;;;;6188794;23;20382;-80
2022/12/05 07:28:50;;;;;;;22.77;10.80;;;5.20;99.90;;;;;;6188373;23;20016;-83
2022/12/05 07:31:21;;;;;;;22.42;10.27;;;5.20;99.90;;;;;;6187993;23;20013;-83
2022/12/05 07:33:50;;;;;;;23.08;10.70;;;5.20;99.90;;;;;;6163045;23;20347;-82
2022/12/05 07:36:22;;;;;;;20.52;10.35;;;5.20;99.90;;;;;;6187410;23;20075;-83
2022/12/05 07:38:48;;;;;;;24.38;10.18;;;5.20;99.90;;;;;;6188127;23;20069;-83
2022/12/05 07:41:26;;;;;;;25.33;10.68;;;5.20;99.90;;;;;;6187835;23;20016;-83
2022/12/05 07:43:53;;;;;;;25.50;11.75;;;5.20;99.90;;;;;;6188052;23;20080;-82
2022/12/05 07:46:20;;;;;;;28.63;11.85;;;5.20;99.90;;;;;;6188116;23;20019;-83
2022/12/05 07:48:47;;;;;;;25.50;11.80;;;5.30;99.90;;;;;;6187800;23;20013;-83
2022/12/05 07:51:12;;;;;;;26.80;11.00;;;5.30;99.90;;;;;;6162864;23;20013;-84
2022/12/05 07:53:41;;;;;;;23.63;11.02;;;5.20;99.90;;;;;;6187974;23;20020;-82
2022/12/05 07:56:08;;;;;;;23.73;11.57;;;5.30;99.90;;;;;;6188383;23;20459;-82
2022/12/05 07:58:34;;;;;;;29.35;11.93;;;5.30;99.90;;;;;;6188930;23;20071;-84
2022/12/05 08:01:14;;;;;;;23.90;11.07;;;5.30;99.90;;;;;;6186896;23;20095;-83
2022/12/05 08:03:41;;;;;;;30.85;12.05;;;5.30;99.90;;;;;;6187119;23;20431;-82
2022/12/05 08:06:12;;;;;;;28.35;11.90;;;5.30;99.90;;;;;;6189216;23;20088;-84
2022/12/05 08:08:38;;;;;;;29.20;11.95;;;5.30;99.90;;;;;;6187773;23;20013;-83
2022/12/05 08:11:11;;;;;;;29.20;12.43;;;5.30;99.90;;;;;;6189395;23;20009;-83
2022/12/05 08:13:38;;;;;;;30.88;12.50;;;5.30;99.90;;;;;;6187335;23;20324;-84
2022/12/05 08:16:06;;;;;;;31.50;12.75;;;5.30;99.90;;;;;;6187432;23;20017;-86
2022/12/05 08:18:32;;;;;;;29.05;13.00;;;5.30;99.90;;;;;;6190211;23;20405;-85
2022/12/05 08:21:05;;;;;;;31.98;11.80;;;5.30;99.90;;;;;;6187922;23;20027;-84
2022/12/05 08:23:32;;;;;;;31.73;12.38;;;5.40;99.90;;;;;;6188075;23;20009;-83
2022/12/05 08:26:12;;;;;;;30.73;11.80;;;5.30;99.90;;;;;;6187965;23;20001;-83
2022/12/05 08:28:39;;;;;;;28.35;11.60;;;5.30;99.90;;;;;;6189012;23;20020;-83
2022/12/05 08:31:14;;;;;;;28.70;11.45;;;5.40;99.90;;;;;;6196015;23;19997;-86
2022/12/05 08:33:41;;;;;;;35.50;12.23;;;5.40;99.90;;;;;;6197849;23;20441;-84
2022/12/05 08:36:10;;;;;;;27.65;11.27;;;5.40;99.90;;;;;;6184878;23;20021;-84
2022/12/05 08:38:36;;;;;;;33.80;12.30;;;5.30;99.90;;;;;;6177600;23;20082;-83
2022/12/05 08:41:03;;;;;;;34.53;11.93;;;5.40;99.90;;;;;;6191330;23;20013;-84
2022/12/05 08:43:30;;;;;;;37.10;13.10;;;5.40;99.90;;;;;;6188604;23;20088;-83
2022/12/05 08:45:56;;;;;;;31.65;11.30;;;5.30;99.90;;;;;;6187234;23;20013;-84
2022/12/05 08:48:22;;;;;;;35.08;11.90;;;5.40;99.90;;;;;;6187221;23;20080;-83
2022/12/05 08:50:48;;;;;;;34.83;11.98;;;5.40;99.90;;;;;;6188513;23;20304;-84
2022/12/05 08:53:14;;;;;;;38.72;12.57;;;5.40;99.90;;;;;;6185851;23;20047;-85
2022/12/05 08:55:39;;;;;;;32.42;12.63;;;5.40;99.90;;;;;;6187011;23;20019;-83
2022/12/05 08:58:05;;;;;;;45.22;12.93;;;5.30;99.90;;;;;;6185744;23;20021;-82
2022/12/05 09:00:31;;;;;;;28.48;11.60;;;5.40;99.90;;;;;;6189096;23;20013;-81
2022/12/05 09:02:57;;;;;;;31.42;11.50;;;5.40;99.90;;;;;;6189929;23;20087;-83
2022/12/05 09:05:24;;;;;;;34.20;12.18;;;5.40;99.90;;;;;;6163542;23;20013;-82
2022/12/05 09:07:49;;;;;;;32.70;12.07;;;5.40;99.90;;;;;;6162138;23;20009;-83
2022/12/05 09:10:15;;;;;;;30.88;12.80;;;5.40;99.90;;;;;;6190150;23;20028;-84
2022/12/05 09:12:41;;;;;;;39.90;12.75;;;5.40;99.90;;;;;;6139720;23;20025;-84
2022/12/05 09:15:08;;;;;;;45.90;12.50;;;5.40;99.90;;;;;;6162686;23;20079;-84
2022/12/05 09:17:34;;;;;;;39.67;11.98;;;5.40;99.90;;;;;;6162526;23;20458;-83
2022/12/05 09:20:00;;;;;;;32.78;11.50;;;5.40;99.90;;;;;;6188475;23;20024;-83
2022/12/05 09:22:26;;;;;;;31.30;11.18;;;5.50;99.90;;;;;;6188745;23;20189;-82
2022/12/05 09:24:52;;;;;;;33.10;12.10;;;5.50;99.90;;;;;;6188535;23;20443;-81
2022/12/05 09:27:17;;;;;;;31.00;11.18;;;5.50;99.90;;;;;;6162401;23;20041;-81
2022/12/05 09:29:43;;;;;;;33.67;11.90;;;5.50;99.90;;;;;;6162602;23;20013;-82
2022/12/05 09:32:09;;;;;;;36.13;11.30;;;5.50;99.90;;;;;;6187761;23;20091;-83
2022/12/05 09:34:36;;;;;;;27.83;11.93;;;5.50;99.90;;;;;;6162555;23;20017;-82
2022/12/05 09:37:04;;;;;;;23.10;10.30;;;5.50;99.90;;;;;;6188428;23;20430;-83
2022/12/05 09:39:29;;;;;;;24.50;11.30;;;5.50;99.90;;;;;;6189082;23;20013;-84
2022/12/05 09:42:04;;;;;;;26.25;9.77;;;5.50;99.90;;;;;;6188094;23;20020;-83
2022/12/05 09:44:41;;;;;;;32.63;10.32;;;5.50;99.90;;;;;;6162158;23;20304;-83
2022/12/05 09:47:31;;;;;;;34.30;10.20;;;5.60;99.90;;;;;;6189151;23;20013;-83
2022/12/05 09:49:57;;;;;;;22.77;10.68;;;5.60;99.90;;;;;;6162206;23;20577;-84
2022/12/05 09:52:34;;;;;;;24.23;10.05;;;5.50;99.90;;;;;;6162174;23;20021;-81
2022/12/05 09:55:10;;;;;;;28.70;10.35;;;5.60;99.90;;;;;;6190754;23;20032;-83
2022/12/05 09:57:42;;;;;;;29.45;10.95;;;5.60;99.90;;;;;;6164072;23;20048;-83
2022/12/05 10:00:10;;;;;;;25.90;10.10;;;5.60;99.90;;;;;;6191756;23;20103;-82
2022/12/05 10:02:56;;;;;;;24.20;10.93;;;5.60;99.90;;;;;;6187018;23;20017;-84
2022/12/05 10:05:26;;;;;;;;;;;5.60;99.90;;;;;;6190883;23;20316;-83
2022/12/05 10:07:55;;;;;;;29.48;9.65;;;5.60;99.90;;;;;;6189518;23;19912;-86
2022/12/05 10:10:33;;;;;;;31.48;11.05;;;5.60;99.90;;;;;;6189191;23;20139;-82
2022/12/05 10:13:23;;;;;;;33.20;11.23;;;5.50;99.90;;;;;;6190571;23;20335;-81
2022/12/05 10:15:55;;;;;;;29.35;11.50;;;5.60;99.90;;;;;;6189945;23;20068;-84
2022/12/05 10:18:30;;;;;;;29.40;11.85;;;5.60;99.90;;;;;;6190296;23;20335;-83
2022/12/05 10:21:09;;;;;;;30.40;13.10;;;5.60;99.90;;;;;;6189939;23;20458;-84
2022/12/05 10:23:55;;;;;;;32.42;12.18;;;5.50;99.90;;;;;;6188854;23;20021;-82
2022/12/05 10:26:25;;;;;;;29.67;11.90;;;5.50;99.90;;;;;;6190509;23;20009;-84
2022/12/05 10:29:14;;;;;;;34.15;12.18;;;5.50;99.90;;;;;;6188891;23;20024;-83
2022/12/05 10:31:42;;;;;;;30.38;12.80;;;5.50;99.90;;;;;;6189257;23;20013;-83
2022/12/05 10:34:37;;;;;;;33.08;13.10;;;5.50;99.90;;;;;;6189235;23;19997;-83
2022/12/05 10:37:12;;;;;;;33.17;13.88;;;5.50;99.90;;;;;;6188481;23;20013;-83
2022/12/05 10:39:38;;;;;;;;;;;5.50;99.90;;;;;;6188987;23;20052;-84
2022/12/05 10:42:06;;;;;;;35.05;12.88;;;5.50;99.90;;;;;;6164202;23;19916;-85
2022/12/05 10:44:32;;;;;;;36.80;12.98;;;5.50;99.90;;;;;;6190019;23;20319;-83
2022/12/05 10:46:58;;;;;;;37.10;13.18;;;5.50;99.90;;;;;;6190433;23;20013;-83
2022/12/05 10:49:24;;;;;;;34.50;13.65;;;5.50;99.90;;;;;;6190415;23;20076;-83
2022/12/05 10:51:50;;;;;;;36.50;13.07;;;5.50;99.90;;;;;;6190123;23;20009;-83
2022/12/05 10:54:20;;;;;;;33.47;13.90;;;5.50;99.90;;;;;;6189668;23;20493;-82
2022/12/05 10:56:49;;;;;;;32.75;13.80;;;5.50;99.90;;;;;;6187619;23;20017;-83
2022/12/05 10:59:17;;;;;;;37.13;13.50;;;5.50;99.90;;;;;;6190063;23;20044;-83
2022/12/05 11:01:51;;;;;;;36.83;13.48;;;5.60;99.90;;;;;;6187550;23;20052;-83
2022/12/05 11:04:30;;;;;;;41.63;14.95;;;5.50;99.90;;;;;;6187410;23;20048;-82
2022/12/05 11:07:01;;;;;;;35.90;12.88;;;5.50;99.90;;;;;;6164733;23;20023;-84
2022/12/05 11:09:34;;;;;;;38.17;13.80;;;5.60;99.90;;;;;;6163128;23;20016;-83
2022/12/05 11:12:05;;;;;;;40.22;12.48;;;5.60;99.90;;;;;;6189183;23;20020;-83
2022/12/05 11:14:33;;;;;;;31.33;12.88;;;5.60;99.90;;;;;;6187417;23;20020;-82
2022/12/05 11:17:02;;;;;;;32.03;12.20;;;5.60;99.90;;;;;;6189052;23;20015;-84
2022/12/05 11:19:36;;;;;;;34.50;13.23;;;5.60;99.90;;;;;;6189894;23;20040;-83
2022/12/05 11:22:04;;;;;;;29.67;13.23;;;5.60;99.90;;;;;;6189861;23;20009;-83
2022/12/05 11:24:34;;;;;;;29.83;11.45;;;5.70;99.90;;;;;;6189782;23;20013;-83
2022/12/05 11:27:19;;;;;;;27.70;11.15;;;5.70;99.90;;;;;;6188029;23;20020;-84
2022/12/05 11:30:01;;;;;;;27.90;11.60;;;5.60;99.90;;;;;;6189934;23;20013;-85
2022/12/05 11:32:30;;;;;;;25.58;11.20;;;5.70;99.90;;;;;;6189652;23;20102;-84
2022/12/05 11:35:11;;;;;;;24.48;9.90;;;5.70;99.90;;;;;;6189617;23;20422;-85
2022/12/05 11:38:02;;;;;;;17.70;8.75;;;5.70;99.90;;;;;;6188327;23;20025;-84
2022/12/05 11:41:19;;;;;;;22.85;10.05;;;5.70;99.90;;;;;;6188185;23;20388;-86
2022/12/05 11:44:05;;;;;;;21.55;10.23;;;5.70;99.90;;;;;;6099079;23;20441;-85
2022/12/05 11:47:03;;;;;;;25.58;9.95;;;5.70;99.90;;;;;;6074411;23;20017;-85
2022/12/05 11:50:03;;;;;;;25.80;9.85;;;5.70;99.90;;;;;;6162344;23;20067;-84
2022/12/05 11:52:28;;;;;;;24.02;10.07;;;5.70;99.90;;;;;;6190543;23;20024;-84
2022/12/05 11:55:16;;;;;;;22.77;9.68;;;5.70;99.90;;;;;;6188158;23;20021;-83
2022/12/05 11:57:58;;;;;;;22.15;9.48;;;5.70;99.90;;;;;;6189826;23;20017;-84
2022/12/05 12:00:52;;;;;;;20.65;9.20;;;5.70;99.90;;;;;;6188659;23;20131;-82
2022/12/05 12:03:35;;;;;;;24.17;9.75;;;5.70;99.90;;;;;;6163371;23;20451;-85
2022/12/05 12:06:04;;;;;;;25.58;10.50;;;5.70;99.90;;;;;;6163452;23;20358;-82
2022/12/05 12:08:38;;;;;;;18.83;9.55;;;5.70;99.90;;;;;;6163257;23;20024;-85
2022/12/05 12:11:14;;;;;;;20.40;9.57;;;5.70;99.90;;;;;;6190347;23;20016;-83
2022/12/05 12:13:58;;;;;;;;;;;5.70;99.90;;;;;;6139087;23;20091;-83
2022/12/05 12:17:00;;;;;;;18.20;9.48;;;5.70;99.90;;;;;;6162219;23;19912;-83
2022/12/05 12:19:26;;;;;;;19.63;8.77;;;5.70;99.90;;;;;;6190084;23;20024;-83
2022/12/05 12:22:01;;;;;;;19.58;9.55;;;5.70;99.90;;;;;;6162864;23;20017;-85
2022/12/05 12:24:53;;;;;;;22.63;9.07;;;5.80;99.90;;;;;;6163693;23;20017;-84
2022/12/05 12:27:52;;;;;;;21.48;8.82;;;5.70;99.90;;;;;;6143890;23;20016;-84
2022/12/05 12:30:26;;;;;;;18.05;7.93;;;5.70;99.90;;;;;;6163201;23;20488;-84
2022/12/05 12:33:21;;;;;;;24.40;9.15;;;5.70;99.90;;;;;;6189470;23;20013;-86
2022/12/05 12:36:07;;;;;;;19.92;8.35;;;5.70;99.90;;;;;;6137353;23;20024;-90
2022/12/05 12:38:54;;;;;;;21.38;9.00;;;5.70;99.90;;;;;;6162717;23;20075;-86
2022/12/05 12:41:41;;;;;;;21.13;9.43;;;5.70;99.90;;;;;;6162957;23;20017;-83
2022/12/05 12:44:34;;;;;;;19.70;9.07;;;5.70;99.90;;;;;;6162698;23;20451;-84
2022/12/05 12:47:13;;;;;;;25.25;8.95;;;5.70;99.90;;;;;;6138387;23;20439;-82
2022/12/05 12:50:04;;;;;;;29.95;10.65;;;5.70;99.90;;;;;;6189005;23;20020;-87
2022/12/05 12:53:01;;;;;;;24.80;9.23;;;5.70;99.90;;;;;;6163167;23;20013;-83
2022/12/05 12:55:36;;;;;;;22.92;9.63;;;5.70;99.90;;;;;;6162767;23;20024;-82
2022/12/05 12:58:04;;;;;;;23.33;9.18;;;5.70;99.90;;;;;;6189598;23;20047;-83
2022/12/05 13:00:35;;;;;;;24.60;9.25;;;5.70;99.90;;;;;;6162476;23;20048;-84
2022/12/05 13:03:25;;;;;;;20.77;8.70;;;5.70;99.90;;;;;;6163663;23;20320;-83
2022/12/05 13:06:11;;;;;;;21.85;9.00;;;5.70;99.90;;;;;;6188707;23;20343;-82
2022/12/05 13:08:56;;;;;;;19.50;7.97;;;5.70;99.90;;;;;;6138195;23;20013;-83
2022/12/05 13:11:22;;;;;;;22.98;8.27;;;5.70;99.90;;;;;;6165077;23;20121;-83
2022/12/05 13:13:55;;;;;;;19.65;7.88;;;5.70;99.90;;;;;;6196585;23;20016;-84
2022/12/05 13:16:35;;;;;;;16.48;7.45;;;5.70;99.90;;;;;;6170583;23;20024;-81
2022/12/05 13:19:05;;;;;;;14.77;7.30;;;5.70;99.90;;;;;;6182094;23;20041;-80
2022/12/05 13:21:31;;;;;;;14.90;6.80;;;5.70;99.90;;;;;;6206405;23;20035;-83
2022/12/05 13:24:02;;;;;;;19.08;7.55;;;5.70;99.90;;;;;;6174161;23;20021;-79
2022/12/05 13:26:29;;;;;;;18.63;7.25;;;5.70;99.90;;;;;;6165860;23;20036;-84
2022/12/05 13:29:28;;;;;;;19.30;7.65;;;5.70;99.90;;;;;;6164899;23;20017;-84
2022/12/05 13:31:54;;;;;;;13.95;6.72;;;5.70;99.90;;;;;;6163826;23;20032;-83
2022/12/05 13:34:26;;;;;;;17.38;7.18;;;5.70;99.90;;;;;;6139590;23;20021;-84
2022/12/05 13:42:29;;;;;;;14.25;6.00;;;5.70;99.90;;;;;;6189072;23;20466;-84
2022/12/05 13:45:04;;;;;;;13.70;6.47;;;5.70;99.90;;;;;;6163391;23;20044;-82
2022/12/05 13:47:51;;;;;;;16.33;6.68;;;5.70;99.90;;;;;;6188728;23;20013;-83
2022/12/05 13:50:32;;;;;;;15.30;6.30;;;5.70;99.90;;;;;;6162473;23;20510;-83
2022/12/05 13:53:24;;;;;;;15.32;6.40;;;5.70;99.90;;;;;;6163467;23;20017;-83
2022/12/05 13:56:19;;;;;;;15.35;6.28;;;5.70;99.90;;;;;;6162255;23;20053;-83
2022/12/05 13:58:58;;;;;;;12.63;5.85;;;5.70;99.90;;;;;;6162975;23;20059;-83
2022/12/05 14:01:23;;;;;;;16.63;7.15;;;5.70;99.90;;;;;;6170787;23;20013;-83
2022/12/05 14:03:49;;;;;;;15.50;6.50;;;5.70;99.90;;;;;;6188838;23;20048;-83
2022/12/05 14:06:33;;;;;;;14.65;5.97;;;5.70;99.90;;;;;;6187866;23;20013;-84
2022/12/05 14:09:00;;;;;;;14.30;6.40;;;5.70;99.90;;;;;;6187490;23;20017;-84
2022/12/05 14:11:25;;;;;;;16.35;6.97;;;5.70;99.90;;;;;;6188542;23;20013;-82
2022/12/05 14:13:52;;;;;;;15.00;6.43;;;5.70;99.90;;;;;;6186643;23;20017;-81
2022/12/05 14:16:23;;;;;;;13.60;6.70;;;5.70;99.90;;;;;;6186316;23;20021;-84
2022/12/05 14:19:04;;;;;;;13.60;6.35;;;5.70;99.90;;;;;;6186980;23;20096;-83
2022/12/05 14:21:48;;;;;;;18.02;6.78;;;5.70;99.90;;;;;;6161303;23;20016;-83
2022/12/05 14:24:24;;;;;;;13.93;6.32;;;5.70;99.90;;;;;;6187273;23;20013;-83
2022/12/05 14:26:52;;;;;;;;;;;5.60;99.90;;;;;;6188996;23;20423;-83
2022/12/05 14:30:02;;;;;;;15.65;6.55;;;5.60;99.90;;;;;;6187396;23;20271;-83
2022/12/05 14:32:34;;;;;;;16.65;7.03;;;5.60;99.90;;;;;;6180049;23;20102;-83
2022/12/05 14:35:09;;;;;;;14.30;6.25;;;5.60;99.90;;;;;;6186668;23;20075;-83
2022/12/05 14:38:12;;;;;;;11.88;6.63;;;5.60;99.90;;;;;;6188006;23;20090;-83
2022/12/05 14:40:46;;;;;;;13.45;6.72;;;5.60;99.90;;;;;;6172250;23;20009;-83
2022/12/05 14:43:31;;;;;;;14.88;7.30;;;5.60;99.90;;;;;;6189882;23;20017;-84
2022/12/05 14:46:06;;;;;;;15.80;7.30;;;5.60;99.90;;;;;;6188642;23;20320;-82
2022/12/05 14:48:36;;;;;;;20.60;7.75;;;5.60;99.90;;;;;;6189896;23;20017;-83
2022/12/05 14:51:31;;;;;;;15.32;7.00;;;5.60;99.90;;;;;;6189203;23;20024;-84
2022/12/05 14:54:11;;;;;;;16.90;6.88;;;5.60;99.90;;;;;;6188793;23;20051;-83
2022/12/05 14:57:08;;;;;;;15.68;6.40;;;5.60;99.90;;;;;;6189950;23;20435;-83
2022/12/05 14:59:48;;;;;;;15.18;6.63;;;5.60;99.90;;;;;;6187932;23;20470;-84
2022/12/05 15:02:22;;;;;;;16.25;7.43;;;5.60;99.90;;;;;;6188169;23;20033;-83
2022/12/05 15:05:02;;;;;;;16.58;6.35;;;5.60;99.90;;;;;;6188472;23;20009;-83
2022/12/05 15:07:33;;;;;;;14.77;7.05;;;5.60;99.90;;;;;;6188531;23;20023;-84
2022/12/05 15:10:10;;;;;;;13.95;6.80;;;5.60;99.90;;;;;;6190322;23;20338;-84
2022/12/05 15:12:49;;;;;;;14.20;6.03;;;5.50;99.90;;;;;;6189556;23;20067;-84
2022/12/05 15:15:53;;;;;;;14.20;5.40;;;5.50;99.90;;;;;;6189549;23;20391;-85
2022/12/05 15:18:33;;;;;;;18.88;6.47;;;5.50;99.90;;;;;;6189215;23;20075;-84
2022/12/05 15:21:23;;;;;;;17.10;6.05;;;5.50;99.90;;;;;;6189397;23;20019;-83
2022/12/05 15:24:01;;;;;;;13.23;6.15;;;5.50;99.90;;;;;;6190369;23;20098;-83
2022/12/05 15:26:54;;;;;;;13.88;6.43;;;5.50;99.90;;;;;;6190573;23;20068;-84
2022/12/05 15:29:19;;;;;;;13.07;6.15;;;5.50;99.90;;;;;;6189363;23;20467;-83
2022/12/05 15:31:54;;;;;;;16.40;6.30;;;5.50;99.90;;;;;;6189880;23;20020;-83
2022/12/05 15:34:44;;;;;;;12.02;6.45;;;5.50;99.90;;;;;;6162899;23;20124;-84
2022/12/05 15:37:24;;;;;;;14.50;6.60;;;5.50;99.90;;;;;;6187865;23;20013;-84
2022/12/05 15:39:54;;;;;;;11.00;5.78;;;5.50;99.90;;;;;;6189230;23;20085;-84
2022/12/05 15:42:25;;;;;;;13.88;6.18;;;5.50;99.90;;;;;;6187817;23;20017;-84
2022/12/05 15:44:51;;;;;;;15.18;6.50;;;5.50;99.90;;;;;;6163004;23;20498;-82
2022/12/05 15:47:22;;;;;;;18.08;7.20;;;5.50;99.90;;;;;;6187618;23;20079;-81
2022/12/05 15:49:49;;;;;;;15.82;6.80;;;5.50;99.90;;;;;;6188918;23;20012;-83
2022/12/05 15:52:32;;;;;;;14.50;7.20;;;5.50;99.90;;;;;;6187785;23;20489;-83
2022/12/05 15:55:03;;;;;;;15.57;7.55;;;5.50;99.90;;;;;;6189188;23;20390;-84
2022/12/05 15:57:41;;;;;;;14.88;7.13;;;5.50;99.90;;;;;;6188973;23;20009;-83
2022/12/05 16:00:15;;;;;;;18.55;7.30;;;5.50;99.90;;;;;;6189021;23;20024;-83
2022/12/05 16:02:50;;;;;;;17.73;7.03;;;5.50;99.90;;;;;;6187186;23;20024;-84
2022/12/05 16:05:34;;;;;;;14.68;7.10;;;5.50;99.90;;;;;;6164386;23;20017;-82
2022/12/05 16:08:01;;;;;;;16.27;6.72;;;5.50;99.90;;;;;;6187614;23;20013;-84
2022/12/05 16:10:29;;;;;;;14.82;7.07;;;5.40;99.90;;;;;;6189248;23;20439;-83
2022/12/05 16:13:00;;;;;;;19.95;7.43;;;5.50;99.90;;;;;;6187453;23;20015;-84
2022/12/05 16:15:29;;;;;;;13.60;6.80;;;5.50;99.90;;;;;;6187321;23;20017;-83
2022/12/05 16:17:58;;;;;;;13.55;7.00;;;5.50;99.90;;;;;;6162970;23;20021;-86
2022/12/05 16:20:29;;;;;;;14.82;7.07;;;5.50;99.90;;;;;;6189279;23;20144;-83
2022/12/05 16:23:03;;;;;;;15.60;6.50;;;5.50;99.90;;;;;;6188185;23;20017;-84
2022/12/05 16:25:32;;;;;;;14.70;7.03;;;5.50;99.90;;;;;;6188013;23;20654;-84
2022/12/05 16:28:07;;;;;;;15.77;7.45;;;5.40;99.90;;;;;;6185772;23;20013;-84
2022/12/05 16:30:34;;;;;;;17.35;7.55;;;5.50;99.90;;;;;;6185970;23;20013;-84
2022/12/05 16:33:14;;;;;;;18.23;7.45;;;5.50;99.90;;;;;;6185952;23;20024;-84
2022/12/05 16:35:42;;;;;;;15.75;7.20;;;5.50;99.90;;;;;;6188243;23;20024;-83
2022/12/05 16:38:24;;;;;;;15.05;7.00;;;5.50;99.90;;;;;;6186111;23;20547;-84
2022/12/05 16:40:55;;;;;;;14.57;7.85;;;5.50;99.90;;;;;;6186118;23;20079;-84
2022/12/05 16:43:29;;;;;;;19.65;7.72;;;5.50;99.90;;;;;;6188181;23;20072;-86
2022/12/05 16:45:57;;;;;;;16.05;7.60;;;5.40;99.90;;;;;;6187144;23;20096;-85
2022/12/05 16:48:26;;;;;;;18.13;7.70;;;5.50;99.90;;;;;;6188526;23;20053;-82
2022/12/05 16:51:24;;;;;;;18.85;8.38;;;5.50;99.90;;;;;;6186516;23;20017;-83
2022/12/05 16:53:52;;;;;;;14.82;7.70;;;5.50;99.90;;;;;;6185915;23;20024;-84
2022/12/05 16:56:24;;;;;;;19.77;7.65;;;5.40;99.90;;;;;;6187128;23;20017;-85
2022/12/05 16:58:50;;;;;;;16.15;7.72;;;5.50;99.90;;;;;;6186948;23;20076;-85
2022/12/05 17:01:24;;;;;;;14.65;8.00;;;5.50;99.90;;;;;;6188039;23;20013;-85
2022/12/05 17:03:52;;;;;;;20.73;7.68;;;5.50;99.90;;;;;;6162231;23;20331;-83
2022/12/05 17:06:22;;;;;;;22.52;8.68;;;5.50;99.90;;;;;;6188158;23;20063;-84
2022/12/05 17:08:49;;;;;;;19.02;8.30;;;5.50;99.90;;;;;;6187864;23;20064;-85
2022/12/05 17:11:23;;;;;;;18.70;8.10;;;5.50;99.90;;;;;;6161421;23;20685;-84
2022/12/05 17:13:50;;;;;;;16.98;7.85;;;5.40;99.90;;;;;;6162183;23;20052;-84
2022/12/05 17:16:17;;;;;;;22.02;9.02;;;5.50;99.90;;;;;;6188130;23;20056;-84
2022/12/05 17:18:43;;;;;;;19.17;8.63;;;5.40;99.90;;;;;;6162280;23;20013;-86
2022/12/05 17:21:12;;;;;;;21.58;9.55;;;5.50;99.90;;;;;;6162121;23;20005;-84
2022/12/05 17:23:38;;;;;;;24.85;9.23;;;5.40;99.90;;;;;;6161553;23;20351;-87